sensor_id;sensor_type;location;lat;lon;timestamp;temperature;humidity
16578;DHT22;8401;52.528;13.340;2023-01-15T00:01:49;11.10;99.90
16578;DHT22;8401;52.528;13.340;2023-01-15T00:04:14;11.10;99.90
16578;DHT22;8401;52.528;13.340;2023-01-15T00:06:42;11.10;99.90
16578;DHT22;8401;52.528;13.340;2023-01-15T00:09:12;11.10;99.90
16578;DHT22;8401;52.528;13.340;2023-01-15T00:11:38;11.10;99.90
16578;DHT22;8401;52.528;13.340;2023-01-15T00:14:03;11.10;99.90
16578;DHT22;8401;52.528;13.340;2023-01-15T00:16:29;11.10;99.90
16578;DHT22;8401;52.528;13.340;2023-01-15T00:18:57;11.00;99.90
16578;DHT22;8401;52.528;13.340;2023-01-15T00:21:25;11.00;99.90
16578;DHT22;8401;52.528;13.340;2023-01-15T00:23:51;10.90;99.90
16578;DHT22;8401;52.528;13.340;2023-01-15T00:26:37;10.90;99.90
16578;DHT22;8401;52.528;13.340;2023-01-15T00:29:22;11.00;99.90
16578;DHT22;8401;52.528;13.340;2023-01-15T00:32:11;11.00;99.90
16578;DHT22;8401;52.528;13.340;2023-01-15T00:34:37;11.00;99.90
16578;DHT22;8401;52.528;13.340;2023-01-15T00:37:03;11.00;99.90
16578;DHT22;8401;52.528;13.340;2023-01-15T00:39:28;11.00;99.90
16578;DHT22;8401;52.528;13.340;2023-01-15T00:41:55;11.10;99.90
16578;DHT22;8401;52.528;13.340;2023-01-15T00:44:21;11.00;99.90
16578;DHT22;8401;52.528;13.340;2023-01-15T00:46:47;11.00;99.90
16578;DHT22;8401;52.528;13.340;2023-01-15T00:49:13;11.10;99.90
16578;DHT22;8401;52.528;13.340;2023-01-15T00:51:39;11.10;99.90
16578;DHT22;8401;52.528;13.340;2023-01-15T00:54:05;11.10;99.90
16578;DHT22;8401;52.528;13.340;2023-01-15T00:56:31;11.10;99.90
16578;DHT22;8401;52.528;13.340;2023-01-15T00:58:57;10.90;99.90
16578;DHT22;8401;52.528;13.340;2023-01-15T01:01:23;11.00;99.90
16578;DHT22;8401;52.528;13.340;2023-01-15T01:03:48;10.90;99.90
16578;DHT22;8401;52.528;13.340;2023-01-15T01:06:18;10.90;99.90
16578;DHT22;8401;52.528;13.340;2023-01-15T01:08:44;10.90;99.90
16578;DHT22;8401;52.528;13.340;2023-01-15T01:11:15;10.90;99.90
16578;DHT22;8401;52.528;13.340;2023-01-15T01:13:42;10.80;99.90
16578;DHT22;8401;52.528;13.340;2023-01-15T01:18:55;10.60;99.90
16578;DHT22;8401;52.528;13.340;2023-01-15T01:21:21;10.70;99.90
16578;DHT22;8401;52.528;13.340;2023-01-15T01:23:47;10.80;99.90
16578;DHT22;8401;52.528;13.340;2023-01-15T01:26:13;10.80;99.90
16578;DHT22;8401;52.528;13.340;2023-01-15T01:28:40;10.80;99.90
16578;DHT22;8401;52.528;13.340;2023-01-15T01:31:06;10.80;99.90
16578;DHT22;8401;52.528;13.340;2023-01-15T01:33:32;10.80;99.90
16578;DHT22;8401;52.528;13.340;2023-01-15T01:35:57;10.70;99.90
16578;DHT22;8401;52.528;13.340;2023-01-15T01:38:23;10.80;99.90
16578;DHT22;8401;52.528;13.340;2023-01-15T01:40:48;10.70;99.90
16578;DHT22;8401;52.528;13.340;2023-01-15T01:43:26;10.80;99.90
16578;DHT22;8401;52.528;13.340;2023-01-15T01:45:51;10.70;99.90
16578;DHT22;8401;52.528;13.340;2023-01-15T01:48:20;10.80;99.90
16578;DHT22;8401;52.528;13.340;2023-01-15T01:50:48;10.70;99.90
16578;DHT22;8401;52.528;13.340;2023-01-15T01:53:21;10.80;99.90
16578;DHT22;8401;52.528;13.340;2023-01-15T01:55:49;10.60;99.90
16578;DHT22;8401;52.528;13.340;2023-01-15T01:58:16;10.70;99.90
16578;DHT22;8401;52.528;13.340;2023-01-15T02:00:46;10.60;99.90
16578;DHT22;8401;52.528;13.340;2023-01-15T02:03:12;10.70;99.90
16578;DHT22;8401;52.528;13.340;2023-01-15T02:05:52;10.60;99.90
16578;DHT22;8401;52.528;13.340;2023-01-15T02:08:18;10.60;99.90
16578;DHT22;8401;52.528;13.340;2023-01-15T02:10:48;10.70;99.90
16578;DHT22;8401;52.528;13.340;2023-01-15T02:13:39;10.70;99.90
16578;DHT22;8401;52.528;13.340;2023-01-15T02:16:07;10.50;99.90
16578;DHT22;8401;52.528;13.340;2023-01-15T02:18:51;10.60;99.90
16578;DHT22;8401;52.528;13.340;2023-01-15T02:24:27;10.60;99.90
16578;DHT22;8401;52.528;13.340;2023-01-15T02:27:01;10.50;99.90
16578;DHT22;8401;52.528;13.340;2023-01-15T02:29:47;10.40;99.90
16578;DHT22;8401;52.528;13.340;2023-01-15T02:32:32;10.40;99.90
16578;DHT22;8401;52.528;13.340;2023-01-15T02:35:05;10.40;99.90
16578;DHT22;8401;52.528;13.340;2023-01-15T02:37:33;10.30;99.90
16578;DHT22;8401;52.528;13.340;2023-01-15T02:40:02;10.20;99.90
16578;DHT22;8401;52.528;13.340;2023-01-15T02:42:30;10.20;99.90
16578;DHT22;8401;52.528;13.340;2023-01-15T02:44:59;10.30;99.90
16578;DHT22;8401;52.528;13.340;2023-01-15T02:47:32;10.30;99.90
16578;DHT22;8401;52.528;13.340;2023-01-15T02:50:02;10.20;99.90
16578;DHT22;8401;52.528;13.340;2023-01-15T02:52:36;10.20;99.90
16578;DHT22;8401;52.528;13.340;2023-01-15T02:55:07;10.10;99.90
16578;DHT22;8401;52.528;13.340;2023-01-15T02:57:37;10.10;99.90
16578;DHT22;8401;52.528;13.340;2023-01-15T03:00:07;10.10;99.90
16578;DHT22;8401;52.528;13.340;2023-01-15T03:02:37;10.20;99.90
16578;DHT22;8401;52.528;13.340;2023-01-15T03:05:19;10.30;99.90
16578;DHT22;8401;52.528;13.340;2023-01-15T03:07:58;10.20;99.90
16578;DHT22;8401;52.528;13.340;2023-01-15T03:13:01;10.30;99.90
16578;DHT22;8401;52.528;13.340;2023-01-15T03:16:01;10.40;99.90
16578;DHT22;8401;52.528;13.340;2023-01-15T03:19:09;10.50;99.90
16578;DHT22;8401;52.528;13.340;2023-01-15T03:24:32;10.40;99.90
16578;DHT22;8401;52.528;13.340;2023-01-15T03:27:00;10.40;99.90
16578;DHT22;8401;52.528;13.340;2023-01-15T03:29:29;10.50;99.90
16578;DHT22;8401;52.528;13.340;2023-01-15T03:31:57;10.60;99.90
16578;DHT22;8401;52.528;13.340;2023-01-15T03:34:24;10.60;99.90
16578;DHT22;8401;52.528;13.340;2023-01-15T03:36:51;10.70;99.90
16578;DHT22;8401;52.528;13.340;2023-01-15T03:39:16;10.60;99.90
16578;DHT22;8401;52.528;13.340;2023-01-15T03:47:26;10.40;99.90
16578;DHT22;8401;52.528;13.340;2023-01-15T03:55:17;10.50;99.90
16578;DHT22;8401;52.528;13.340;2023-01-15T04:00:45;10.40;99.90
16578;DHT22;8401;52.528;13.340;2023-01-15T04:03:15;10.40;99.90
16578;DHT22;8401;52.528;13.340;2023-01-15T04:05:42;10.20;99.90
16578;DHT22;8401;52.528;13.340;2023-01-15T04:08:08;9.60;99.90
16578;DHT22;8401;52.528;13.340;2023-01-15T04:10:35;9.30;99.90
16578;DHT22;8401;52.528;13.340;2023-01-15T04:13:01;9.10;99.90
16578;DHT22;8401;52.528;13.340;2023-01-15T04:15:26;9.00;99.90
16578;DHT22;8401;52.528;13.340;2023-01-15T04:17:52;9.00;99.90
16578;DHT22;8401;52.528;13.340;2023-01-15T04:20:18;8.80;99.90
16578;DHT22;8401;52.528;13.340;2023-01-15T04:22:43;8.70;99.90
16578;DHT22;8401;52.528;13.340;2023-01-15T04:25:09;8.70;99.90
16578;DHT22;8401;52.528;13.340;2023-01-15T04:27:35;8.60;99.90
16578;DHT22;8401;52.528;13.340;2023-01-15T04:30:00;8.50;99.90
16578;DHT22;8401;52.528;13.340;2023-01-15T04:32:26;8.60;99.90
16578;DHT22;8401;52.528;13.340;2023-01-15T04:34:52;8.40;99.90
16578;DHT22;8401;52.528;13.340;2023-01-15T04:37:17;7.80;99.90
16578;DHT22;8401;52.528;13.340;2023-01-15T04:39:43;7.50;99.90
16578;DHT22;8401;52.528;13.340;2023-01-15T04:42:13;7.20;99.90
16578;DHT22;8401;52.528;13.340;2023-01-15T04:44:57;7.10;99.90
16578;DHT22;8401;52.528;13.340;2023-01-15T04:47:23;6.90;99.90
16578;DHT22;8401;52.528;13.340;2023-01-15T04:49:49;6.80;99.90
16578;DHT22;8401;52.528;13.340;2023-01-15T04:52:15;6.70;99.90
16578;DHT22;8401;52.528;13.340;2023-01-15T04:54:40;6.80;99.90
16578;DHT22;8401;52.528;13.340;2023-01-15T04:57:06;6.70;99.90
16578;DHT22;8401;52.528;13.340;2023-01-15T04:59:32;6.60;99.90
16578;DHT22;8401;52.528;13.340;2023-01-15T05:01:57;6.60;99.90
16578;DHT22;8401;52.528;13.340;2023-01-15T05:04:23;6.50;99.90
16578;DHT22;8401;52.528;13.340;2023-01-15T05:06:49;6.40;99.90
16578;DHT22;8401;52.528;13.340;2023-01-15T05:09:15;6.40;99.90
16578;DHT22;8401;52.528;13.340;2023-01-15T05:11:41;6.40;99.90
16578;DHT22;8401;52.528;13.340;2023-01-15T05:14:07;6.40;99.90
16578;DHT22;8401;52.528;13.340;2023-01-15T05:16:33;6.40;99.90
16578;DHT22;8401;52.528;13.340;2023-01-15T05:19:01;6.40;99.90
16578;DHT22;8401;52.528;13.340;2023-01-15T05:21:32;6.40;99.90
16578;DHT22;8401;52.528;13.340;2023-01-15T05:24:00;6.40;99.90
16578;DHT22;8401;52.528;13.340;2023-01-15T05:26:26;6.40;99.90
16578;DHT22;8401;52.528;13.340;2023-01-15T05:28:53;6.40;99.90
16578;DHT22;8401;52.528;13.340;2023-01-15T05:31:19;6.40;99.90
16578;DHT22;8401;52.528;13.340;2023-01-15T05:33:47;6.40;99.90
16578;DHT22;8401;52.528;13.340;2023-01-15T05:36:15;6.50;99.90
16578;DHT22;8401;52.528;13.340;2023-01-15T05:38:41;6.40;99.90
16578;DHT22;8401;52.528;13.340;2023-01-15T05:41:09;6.40;99.90
16578;DHT22;8401;52.528;13.340;2023-01-15T05:43:54;6.40;99.90
16578;DHT22;8401;52.528;13.340;2023-01-15T05:46:21;6.40;99.90
16578;DHT22;8401;52.528;13.340;2023-01-15T05:48:47;6.40;99.90
16578;DHT22;8401;52.528;13.340;2023-01-15T05:51:13;6.40;99.90
16578;DHT22;8401;52.528;13.340;2023-01-15T05:53:39;6.40;99.90
16578;DHT22;8401;52.528;13.340;2023-01-15T05:56:05;6.40;99.90
16578;DHT22;8401;52.528;13.340;2023-01-15T05:58:31;6.40;99.90
16578;DHT22;8401;52.528;13.340;2023-01-15T06:00:57;6.40;99.90
16578;DHT22;8401;52.528;13.340;2023-01-15T06:03:24;6.40;99.90
16578;DHT22;8401;52.528;13.340;2023-01-15T06:05:53;6.40;99.90
16578;DHT22;8401;52.528;13.340;2023-01-15T06:08:20;6.40;99.90
16578;DHT22;8401;52.528;13.340;2023-01-15T06:10:46;6.40;99.90
16578;DHT22;8401;52.528;13.340;2023-01-15T06:13:13;6.40;99.90
16578;DHT22;8401;52.528;13.340;2023-01-15T06:15:39;6.40;99.90
16578;DHT22;8401;52.528;13.340;2023-01-15T06:18:05;6.50;99.90
16578;DHT22;8401;52.528;13.340;2023-01-15T06:20:34;6.50;99.90
16578;DHT22;8401;52.528;13.340;2023-01-15T06:23:00;6.60;99.90
16578;DHT22;8401;52.528;13.340;2023-01-15T06:25:26;6.50;99.90
16578;DHT22;8401;52.528;13.340;2023-01-15T06:27:52;6.60;99.90
16578;DHT22;8401;52.528;13.340;2023-01-15T06:30:17;6.60;99.90
16578;DHT22;8401;52.528;13.340;2023-01-15T06:32:43;6.60;99.90
16578;DHT22;8401;52.528;13.340;2023-01-15T06:35:09;6.60;99.90
16578;DHT22;8401;52.528;13.340;2023-01-15T06:37:35;6.60;99.90
16578;DHT22;8401;52.528;13.340;2023-01-15T06:40:00;6.60;99.90
16578;DHT22;8401;52.528;13.340;2023-01-15T06:42:26;6.60;99.90
16578;DHT22;8401;52.528;13.340;2023-01-15T06:45:11;6.60;99.90
16578;DHT22;8401;52.528;13.340;2023-01-15T06:47:56;6.60;99.90
16578;DHT22;8401;52.528;13.340;2023-01-15T06:50:22;6.60;99.90
16578;DHT22;8401;52.528;13.340;2023-01-15T06:52:48;6.60;99.90
16578;DHT22;8401;52.528;13.340;2023-01-15T06:55:13;6.60;99.90
16578;DHT22;8401;52.528;13.340;2023-01-15T06:57:40;6.70;99.90
16578;DHT22;8401;52.528;13.340;2023-01-15T07:00:09;6.80;99.90
16578;DHT22;8401;52.528;13.340;2023-01-15T07:02:34;6.70;99.90
16578;DHT22;8401;52.528;13.340;2023-01-15T07:05:00;6.60;99.90
16578;DHT22;8401;52.528;13.340;2023-01-15T07:07:27;6.80;99.90
16578;DHT22;8401;52.528;13.340;2023-01-15T07:09:53;6.80;99.90
16578;DHT22;8401;52.528;13.340;2023-01-15T07:12:19;6.70;99.90
16578;DHT22;8401;52.528;13.340;2023-01-15T07:14:45;6.60;99.90
16578;DHT22;8401;52.528;13.340;2023-01-15T07:17:11;6.70;99.90
16578;DHT22;8401;52.528;13.340;2023-01-15T07:19:37;6.60;99.90
16578;DHT22;8401;52.528;13.340;2023-01-15T07:22:03;6.70;99.90
16578;DHT22;8401;52.528;13.340;2023-01-15T07:24:29;6.60;99.90
16578;DHT22;8401;52.528;13.340;2023-01-15T07:26:55;6.60;99.90
16578;DHT22;8401;52.528;13.340;2023-01-15T07:29:20;6.60;99.90
16578;DHT22;8401;52.528;13.340;2023-01-15T07:31:47;6.80;99.90
16578;DHT22;8401;52.528;13.340;2023-01-15T07:34:13;6.70;99.90
16578;DHT22;8401;52.528;13.340;2023-01-15T07:36:39;6.70;99.90
16578;DHT22;8401;52.528;13.340;2023-01-15T07:39:06;6.60;99.90
16578;DHT22;8401;52.528;13.340;2023-01-15T07:41:32;6.70;99.90
16578;DHT22;8401;52.528;13.340;2023-01-15T07:44:16;6.70;99.90
16578;DHT22;8401;52.528;13.340;2023-01-15T07:47:01;6.70;99.90
16578;DHT22;8401;52.528;13.340;2023-01-15T07:49:46;6.60;99.90
16578;DHT22;8401;52.528;13.340;2023-01-15T07:52:20;6.70;99.90
16578;DHT22;8401;52.528;13.340;2023-01-15T07:54:48;6.70;99.90
16578;DHT22;8401;52.528;13.340;2023-01-15T07:57:17;6.80;99.90
16578;DHT22;8401;52.528;13.340;2023-01-15T07:59:43;6.90;99.90
16578;DHT22;8401;52.528;13.340;2023-01-15T08:02:09;6.80;99.90
16578;DHT22;8401;52.528;13.340;2023-01-15T08:04:35;6.80;99.90
16578;DHT22;8401;52.528;13.340;2023-01-15T08:07:02;6.70;99.90
16578;DHT22;8401;52.528;13.340;2023-01-15T08:09:28;6.80;99.90
16578;DHT22;8401;52.528;13.340;2023-01-15T08:11:54;6.80;99.90
16578;DHT22;8401;52.528;13.340;2023-01-15T08:14:38;6.80;99.90
16578;DHT22;8401;52.528;13.340;2023-01-15T08:17:22;6.80;99.90
16578;DHT22;8401;52.528;13.340;2023-01-15T08:19:48;6.80;99.90
16578;DHT22;8401;52.528;13.340;2023-01-15T08:22:14;6.70;99.90
16578;DHT22;8401;52.528;13.340;2023-01-15T08:24:39;6.70;99.90
16578;DHT22;8401;52.528;13.340;2023-01-15T08:27:05;6.80;99.90
16578;DHT22;8401;52.528;13.340;2023-01-15T08:29:31;7.00;99.90
16578;DHT22;8401;52.528;13.340;2023-01-15T08:31:56;6.90;99.90
16578;DHT22;8401;52.528;13.340;2023-01-15T08:34:22;6.90;99.90
16578;DHT22;8401;52.528;13.340;2023-01-15T08:36:48;6.80;99.90
16578;DHT22;8401;52.528;13.340;2023-01-15T08:39:17;6.80;99.90
16578;DHT22;8401;52.528;13.340;2023-01-15T08:41:43;6.90;99.90
16578;DHT22;8401;52.528;13.340;2023-01-15T08:44:09;6.80;99.90
16578;DHT22;8401;52.528;13.340;2023-01-15T08:46:35;6.80;99.90
16578;DHT22;8401;52.528;13.340;2023-01-15T08:49:03;6.90;99.90
16578;DHT22;8401;52.528;13.340;2023-01-15T08:51:29;6.90;99.90
16578;DHT22;8401;52.528;13.340;2023-01-15T08:53:54;6.90;99.90
16578;DHT22;8401;52.528;13.340;2023-01-15T08:56:20;6.90;99.90
16578;DHT22;8401;52.528;13.340;2023-01-15T08:58:46;6.90;99.90
16578;DHT22;8401;52.528;13.340;2023-01-15T09:01:13;7.10;99.90
16578;DHT22;8401;52.528;13.340;2023-01-15T09:03:41;7.10;99.90
16578;DHT22;8401;52.528;13.340;2023-01-15T09:06:07;7.00;99.90
16578;DHT22;8401;52.528;13.340;2023-01-15T09:08:33;7.00;99.90
16578;DHT22;8401;52.528;13.340;2023-01-15T09:11:00;7.10;99.90
16578;DHT22;8401;52.528;13.340;2023-01-15T09:13:27;7.20;99.90
16578;DHT22;8401;52.528;13.340;2023-01-15T09:15:57;7.10;99.90
16578;DHT22;8401;52.528;13.340;2023-01-15T09:18:22;7.30;99.90
16578;DHT22;8401;52.528;13.340;2023-01-15T09:20:48;7.10;99.90
16578;DHT22;8401;52.528;13.340;2023-01-15T09:23:14;7.10;99.90
16578;DHT22;8401;52.528;13.340;2023-01-15T09:25:40;7.10;99.90
16578;DHT22;8401;52.528;13.340;2023-01-15T09:28:14;7.10;99.90
16578;DHT22;8401;52.528;13.340;2023-01-15T09:30:40;7.10;99.90
16578;DHT22;8401;52.528;13.340;2023-01-15T09:33:06;7.20;99.90
16578;DHT22;8401;52.528;13.340;2023-01-15T09:35:31;7.20;99.90
16578;DHT22;8401;52.528;13.340;2023-01-15T09:37:57;7.20;99.90
16578;DHT22;8401;52.528;13.340;2023-01-15T09:40:53;7.20;99.90
16578;DHT22;8401;52.528;13.340;2023-01-15T09:43:52;7.20;99.90
16578;DHT22;8401;52.528;13.340;2023-01-15T09:46:29;7.20;99.90
16578;DHT22;8401;52.528;13.340;2023-01-15T09:52:11;7.20;99.90
16578;DHT22;8401;52.528;13.340;2023-01-15T09:57:13;7.30;99.90
16578;DHT22;8401;52.528;13.340;2023-01-15T09:59:43;7.30;99.90
16578;DHT22;8401;52.528;13.340;2023-01-15T10:05:27;7.50;99.90
16578;DHT22;8401;52.528;13.340;2023-01-15T10:08:03;7.50;99.90
16578;DHT22;8401;52.528;13.340;2023-01-15T10:13:38;7.50;99.90
16578;DHT22;8401;52.528;13.340;2023-01-15T10:16:06;7.60;99.90
16578;DHT22;8401;52.528;13.340;2023-01-15T10:18:32;7.70;99.90
16578;DHT22;8401;52.528;13.340;2023-01-15T10:24:36;7.80;99.90
16578;DHT22;8401;52.528;13.340;2023-01-15T10:27:23;7.70;99.90
16578;DHT22;8401;52.528;13.340;2023-01-15T10:30:15;7.70;99.90
16578;DHT22;8401;52.528;13.340;2023-01-15T10:32:51;7.60;99.90
16578;DHT22;8401;52.528;13.340;2023-01-15T10:43:52;8.00;99.90
16578;DHT22;8401;52.528;13.340;2023-01-15T10:46:27;7.90;99.90
16578;DHT22;8401;52.528;13.340;2023-01-15T10:49:04;8.00;99.90
16578;DHT22;8401;52.528;13.340;2023-01-15T10:51:45;7.90;99.90
16578;DHT22;8401;52.528;13.340;2023-01-15T10:59:59;7.80;99.90
16578;DHT22;8401;52.528;13.340;2023-01-15T11:05:17;7.70;99.90
16578;DHT22;8401;52.528;13.340;2023-01-15T11:07:49;7.90;99.90
16578;DHT22;8401;52.528;13.340;2023-01-15T11:10:18;8.00;99.90
16578;DHT22;8401;52.528;13.340;2023-01-15T11:12:53;8.10;99.90
16578;DHT22;8401;52.528;13.340;2023-01-15T11:15:38;8.00;99.90
16578;DHT22;8401;52.528;13.340;2023-01-15T11:18:26;8.10;99.90
16578;DHT22;8401;52.528;13.340;2023-01-15T11:21:17;8.20;99.90
16578;DHT22;8401;52.528;13.340;2023-01-15T11:23:43;8.10;99.90
16578;DHT22;8401;52.528;13.340;2023-01-15T11:26:22;8.10;99.90
16578;DHT22;8401;52.528;13.340;2023-01-15T11:28:49;8.00;99.90
16578;DHT22;8401;52.528;13.340;2023-01-15T11:31:15;8.00;99.90
16578;DHT22;8401;52.528;13.340;2023-01-15T11:34:02;8.00;99.90
16578;DHT22;8401;52.528;13.340;2023-01-15T11:36:29;8.10;99.90
16578;DHT22;8401;52.528;13.340;2023-01-15T11:38:55;8.20;99.90
16578;DHT22;8401;52.528;13.340;2023-01-15T11:43:57;8.10;99.90
16578;DHT22;8401;52.528;13.340;2023-01-15T11:46:45;8.00;99.90
16578;DHT22;8401;52.528;13.340;2023-01-15T11:49:29;8.00;99.90
16578;DHT22;8401;52.528;13.340;2023-01-15T11:52:20;8.20;99.90
16578;DHT22;8401;52.528;13.340;2023-01-15T11:54:50;8.10;99.90
16578;DHT22;8401;52.528;13.340;2023-01-15T11:57:29;8.10;99.90
16578;DHT22;8401;52.528;13.340;2023-01-15T11:59:56;8.00;99.90
16578;DHT22;8401;52.528;13.340;2023-01-15T12:02:34;8.00;99.90
16578;DHT22;8401;52.528;13.340;2023-01-15T12:07:42;8.10;99.90
16578;DHT22;8401;52.528;13.340;2023-01-15T12:10:46;8.20;99.90
16578;DHT22;8401;52.528;13.340;2023-01-15T12:18:54;8.10;99.90
16578;DHT22;8401;52.528;13.340;2023-01-15T12:26:58;8.20;99.90
16578;DHT22;8401;52.528;13.340;2023-01-15T12:29:30;8.20;99.90
16578;DHT22;8401;52.528;13.340;2023-01-15T12:32:08;8.20;99.90
16578;DHT22;8401;52.528;13.340;2023-01-15T12:34:48;8.20;99.90
16578;DHT22;8401;52.528;13.340;2023-01-15T12:37:16;8.20;99.90
16578;DHT22;8401;52.528;13.340;2023-01-15T12:42:38;8.30;99.90
16578;DHT22;8401;52.528;13.340;2023-01-15T12:45:28;8.30;99.90
16578;DHT22;8401;52.528;13.340;2023-01-15T12:53:45;8.30;99.90
16578;DHT22;8401;52.528;13.340;2023-01-15T12:58:48;8.10;99.90
16578;DHT22;8401;52.528;13.340;2023-01-15T13:06:39;8.10;99.90
16578;DHT22;8401;52.528;13.340;2023-01-15T13:09:18;8.20;99.90
16578;DHT22;8401;52.528;13.340;2023-01-15T13:11:47;8.20;99.90
16578;DHT22;8401;52.528;13.340;2023-01-15T13:14:16;8.20;99.90
16578;DHT22;8401;52.528;13.340;2023-01-15T13:31:49;7.90;99.90
16578;DHT22;8401;52.528;13.340;2023-01-15T13:36:48;7.80;99.90
16578;DHT22;8401;52.528;13.340;2023-01-15T13:39:19;7.80;99.90
16578;DHT22;8401;52.528;13.340;2023-01-15T13:41:51;7.80;99.90
16578;DHT22;8401;52.528;13.340;2023-01-15T13:44:48;7.80;99.90
16578;DHT22;8401;52.528;13.340;2023-01-15T13:47:21;7.90;99.90
16578;DHT22;8401;52.528;13.340;2023-01-15T13:50:04;7.80;99.90
16578;DHT22;8401;52.528;13.340;2023-01-15T13:52:35;7.80;99.90
16578;DHT22;8401;52.528;13.340;2023-01-15T13:55:25;7.80;99.90
16578;DHT22;8401;52.528;13.340;2023-01-15T13:57:54;7.70;99.90
16578;DHT22;8401;52.528;13.340;2023-01-15T14:00:31;7.80;99.90
16578;DHT22;8401;52.528;13.340;2023-01-15T14:02:59;7.70;99.90
16578;DHT22;8401;52.528;13.340;2023-01-15T14:07:51;7.90;99.90
16578;DHT22;8401;52.528;13.340;2023-01-15T14:13:04;8.00;99.90
16578;DHT22;8401;52.528;13.340;2023-01-15T14:26:34;7.60;99.90
16578;DHT22;8401;52.528;13.340;2023-01-15T14:34:33;7.70;99.90
16578;DHT22;8401;52.528;13.340;2023-01-15T14:37:04;7.60;99.90
16578;DHT22;8401;52.528;13.340;2023-01-15T14:39:50;7.60;99.90
16578;DHT22;8401;52.528;13.340;2023-01-15T14:42:31;7.50;99.90
16578;DHT22;8401;52.528;13.340;2023-01-15T14:45:30;7.60;99.90
16578;DHT22;8401;52.528;13.340;2023-01-15T14:48:01;7.60;99.90
16578;DHT22;8401;52.528;13.340;2023-01-15T14:50:35;7.50;99.90
16578;DHT22;8401;52.528;13.340;2023-01-15T14:55:57;7.60;99.90
16578;DHT22;8401;52.528;13.340;2023-01-15T15:04:51;7.50;99.90
16578;DHT22;8401;52.528;13.340;2023-01-15T15:07:21;7.50;99.90
16578;DHT22;8401;52.528;13.340;2023-01-15T15:18:03;7.30;99.90
16578;DHT22;8401;52.528;13.340;2023-01-15T15:23:57;7.10;99.90
16578;DHT22;8401;52.528;13.340;2023-01-15T15:29:15;7.10;99.90
16578;DHT22;8401;52.528;13.340;2023-01-15T15:34:25;7.00;99.90
16578;DHT22;8401;52.528;13.340;2023-01-15T15:36:51;7.10;99.90
16578;DHT22;8401;52.528;13.340;2023-01-15T15:39:27;7.10;99.90
16578;DHT22;8401;52.528;13.340;2023-01-15T15:41:56;7.00;99.90
16578;DHT22;8401;52.528;13.340;2023-01-15T15:44:54;7.00;99.90
16578;DHT22;8401;52.528;13.340;2023-01-15T15:47:41;7.00;99.90
16578;DHT22;8401;52.528;13.340;2023-01-15T15:50:31;7.00;99.90
16578;DHT22;8401;52.528;13.340;2023-01-15T15:52:57;7.00;99.90
16578;DHT22;8401;52.528;13.340;2023-01-15T15:55:26;7.00;99.90
16578;DHT22;8401;52.528;13.340;2023-01-15T15:57:59;7.00;99.90
16578;DHT22;8401;52.528;13.340;2023-01-15T16:00:43;6.90;99.90
16578;DHT22;8401;52.528;13.340;2023-01-15T16:03:24;6.90;99.90
16578;DHT22;8401;52.528;13.340;2023-01-15T16:05:58;6.90;99.90
16578;DHT22;8401;52.528;13.340;2023-01-15T16:08:26;6.90;99.90
16578;DHT22;8401;52.528;13.340;2023-01-15T16:10:54;6.90;99.90
16578;DHT22;8401;52.528;13.340;2023-01-15T16:13:31;7.00;99.90
16578;DHT22;8401;52.528;13.340;2023-01-15T16:15:59;6.90;99.90
16578;DHT22;8401;52.528;13.340;2023-01-15T16:18:26;6.90;99.90
16578;DHT22;8401;52.528;13.340;2023-01-15T16:20:52;6.80;99.90
16578;DHT22;8401;52.528;13.340;2023-01-15T16:23:24;6.60;99.90
16578;DHT22;8401;52.528;13.340;2023-01-15T16:26:15;6.70;99.90
16578;DHT22;8401;52.528;13.340;2023-01-15T16:28:49;6.60;99.90
16578;DHT22;8401;52.528;13.340;2023-01-15T16:31:16;6.60;99.90
16578;DHT22;8401;52.528;13.340;2023-01-15T16:33:43;6.50;99.90
16578;DHT22;8401;52.528;13.340;2023-01-15T16:36:09;6.70;99.90
16578;DHT22;8401;52.528;13.340;2023-01-15T16:38:40;6.60;99.90
16578;DHT22;8401;52.528;13.340;2023-01-15T16:41:19;6.50;99.90
16578;DHT22;8401;52.528;13.340;2023-01-15T16:44:05;6.40;99.90
16578;DHT22;8401;52.528;13.340;2023-01-15T16:46:34;6.40;99.90
16578;DHT22;8401;52.528;13.340;2023-01-15T16:51:58;6.50;99.90
16578;DHT22;8401;52.528;13.340;2023-01-15T17:01:54;6.30;99.90
16578;DHT22;8401;52.528;13.340;2023-01-15T17:04:30;6.30;99.90
16578;DHT22;8401;52.528;13.340;2023-01-15T17:09:27;6.40;99.90
16578;DHT22;8401;52.528;13.340;2023-01-15T17:11:54;6.40;99.90
16578;DHT22;8401;52.528;13.340;2023-01-15T17:14:23;6.40;99.90
16578;DHT22;8401;52.528;13.340;2023-01-15T17:17:16;6.40;99.90
16578;DHT22;8401;52.528;13.340;2023-01-15T17:19:42;6.40;99.90
16578;DHT22;8401;52.528;13.340;2023-01-15T17:22:25;6.40;99.90
16578;DHT22;8401;52.528;13.340;2023-01-15T17:24:54;6.40;99.90
16578;DHT22;8401;52.528;13.340;2023-01-15T17:27:20;6.40;99.90
16578;DHT22;8401;52.528;13.340;2023-01-15T17:29:46;6.40;99.90
16578;DHT22;8401;52.528;13.340;2023-01-15T17:32:29;6.40;99.90
16578;DHT22;8401;52.528;13.340;2023-01-15T17:34:55;6.40;99.90
16578;DHT22;8401;52.528;13.340;2023-01-15T17:37:21;6.40;99.90
16578;DHT22;8401;52.528;13.340;2023-01-15T17:39:46;6.40;99.90
16578;DHT22;8401;52.528;13.340;2023-01-15T17:42:17;6.40;99.90
16578;DHT22;8401;52.528;13.340;2023-01-15T17:44:43;6.40;99.90
16578;DHT22;8401;52.528;13.340;2023-01-15T17:47:09;6.40;99.90
16578;DHT22;8401;52.528;13.340;2023-01-15T17:49:35;6.30;99.90
16578;DHT22;8401;52.528;13.340;2023-01-15T17:52:03;6.20;99.90
16578;DHT22;8401;52.528;13.340;2023-01-15T17:54:30;6.30;99.90
16578;DHT22;8401;52.528;13.340;2023-01-15T17:57:14;6.30;99.90
16578;DHT22;8401;52.528;13.340;2023-01-15T17:59:59;6.30;99.90
16578;DHT22;8401;52.528;13.340;2023-01-15T18:02:43;6.30;99.90
16578;DHT22;8401;52.528;13.340;2023-01-15T18:05:28;6.30;99.90
16578;DHT22;8401;52.528;13.340;2023-01-15T18:08:01;6.30;99.90
16578;DHT22;8401;52.528;13.340;2023-01-15T18:10:27;6.40;99.90
16578;DHT22;8401;52.528;13.340;2023-01-15T18:12:53;6.50;99.90
16578;DHT22;8401;52.528;13.340;2023-01-15T18:15:18;6.50;99.90
16578;DHT22;8401;52.528;13.340;2023-01-15T18:17:45;6.50;99.90
16578;DHT22;8401;52.528;13.340;2023-01-15T18:20:11;6.50;99.90
16578;DHT22;8401;52.528;13.340;2023-01-15T18:22:37;6.40;99.90
16578;DHT22;8401;52.528;13.340;2023-01-15T18:25:04;6.50;99.90
16578;DHT22;8401;52.528;13.340;2023-01-15T18:27:30;6.50;99.90
16578;DHT22;8401;52.528;13.340;2023-01-15T18:29:56;6.40;99.90
16578;DHT22;8401;52.528;13.340;2023-01-15T18:32:27;6.50;99.90
16578;DHT22;8401;52.528;13.340;2023-01-15T18:34:54;6.50;99.90
16578;DHT22;8401;52.528;13.340;2023-01-15T18:37:19;6.50;99.90
16578;DHT22;8401;52.528;13.340;2023-01-15T18:39:45;6.50;99.90
16578;DHT22;8401;52.528;13.340;2023-01-15T18:42:11;6.50;99.90
16578;DHT22;8401;52.528;13.340;2023-01-15T18:44:37;6.40;99.90
16578;DHT22;8401;52.528;13.340;2023-01-15T18:47:24;6.40;99.90
16578;DHT22;8401;52.528;13.340;2023-01-15T18:49:50;6.40;99.90
16578;DHT22;8401;52.528;13.340;2023-01-15T18:52:16;6.40;99.90
16578;DHT22;8401;52.528;13.340;2023-01-15T18:55:01;6.40;99.90